createdAt,value
2019-02-18T00:00:03.278Z,5
2019-02-18T00:05:05.485Z,4.8
2019-02-18T00:10:07.843Z,4.7
2019-02-18T00:15:10.267Z,4.5
2019-02-18T00:20:12.442Z,4.3
2019-02-18T00:41:41.422Z,3.9
2019-02-18T00:46:43.738Z,4
2019-02-18T00:51:46.218Z,4
2019-02-18T00:56:48.351Z,4
2019-02-18T01:01:50.561Z,4
2019-02-18T01:06:52.909Z,4
2019-02-18T01:11:55.177Z,4.1
2019-02-18T09:09:31.584Z,7.4
2019-02-18T09:14:32.650Z,7.6
2019-02-18T09:19:35.091Z,7.8
2019-02-18T09:24:37.328Z,8
2019-02-18T09:29:39.681Z,8.1
2019-02-18T09:34:41.919Z,8.2
2019-02-18T09:56:07.888Z,9.2
2019-02-18T10:01:10.184Z,9.4
2019-02-18T10:06:12.470Z,9.5
2019-02-18T10:11:14.662Z,9.8
2019-02-18T10:16:16.980Z,10
2019-02-18T11:28:58.063Z,12.8
2019-02-18T11:34:00.340Z,13.1
2019-02-18T11:39:02.721Z,13.3
2019-02-18T11:44:04.974Z,13.5
2019-02-18T11:49:07.309Z,13.7
2019-02-18T11:54:09.745Z,14
2019-02-18T11:59:11.852Z,14.5
2019-02-18T12:04:14.127Z,15.1
2019-02-18T12:09:17.829Z,15.5
2019-02-18T12:14:19.106Z,15.9
2019-02-18T12:19:21.189Z,16.1
2019-02-18T12:24:23.385Z,16
2019-02-18T12:29:26.572Z,16.4
2019-02-18T12:34:27.932Z,16.5
2019-02-18T12:39:30.300Z,16.299999
2019-02-18T12:44:32.474Z,16.4
2019-02-18T12:49:34.890Z,16.299999
2019-02-18T12:54:37.036Z,16.200001
2019-02-18T12:59:39.579Z,15.9
2019-02-18T13:04:41.789Z,16
2019-02-18T13:09:45.255Z,15.7
2019-02-18T13:23:55.196Z,15.3
2019-02-18T13:28:55.435Z,15.1
2019-02-18T13:33:57.708Z,15
2019-02-18T13:38:59.951Z,15
2019-02-18T13:44:03.612Z,15
2019-02-18T13:49:06.078Z,15
2019-02-18T13:54:08.077Z,15.1
2019-02-18T13:59:09.189Z,15.1
2019-02-18T14:04:11.478Z,15.3
2019-02-18T14:09:13.888Z,15.3
2019-02-18T14:14:16.109Z,15.3
2019-02-18T14:19:18.277Z,15.3
2019-02-18T14:24:20.619Z,15.4
2019-02-18T14:29:22.976Z,15.6
2019-02-18T14:34:25.179Z,15.7
2019-02-18T14:39:27.478Z,15.6
2019-02-18T14:44:29.738Z,15.5
2019-02-18T14:49:32.010Z,15.5
2019-02-18T14:54:34.451Z,15.3
2019-02-18T14:59:36.709Z,15
2019-02-18T15:04:38.913Z,14.7
2019-02-18T15:09:41.402Z,14.6
2019-02-18T15:14:43.569Z,14.4
2019-02-18T15:19:45.824Z,14.2
2019-02-18T15:24:49.166Z,14.1
2019-02-18T15:29:50.521Z,14
2019-02-18T15:34:52.761Z,13.9
2019-02-18T15:39:55.044Z,13.8
2019-02-18T15:44:57.328Z,13.7
2019-02-18T15:49:59.678Z,13.6
2019-02-18T15:55:01.927Z,13.6
2019-02-18T16:00:04.174Z,13.4
2019-02-18T16:05:06.523Z,13.3
2019-02-18T16:10:08.835Z,13.2
2019-02-18T16:15:11.027Z,13.1
2019-02-18T16:20:13.396Z,13
2019-02-18T16:25:15.677Z,12.9
2019-02-18T16:30:17.987Z,12.7
2019-02-18T16:35:20.268Z,12.5
2019-02-18T16:40:22.521Z,12.3
2019-02-18T16:45:24.982Z,12.2
2019-02-18T16:50:27.175Z,11.9
2019-02-18T16:55:30.406Z,11.5
2019-02-18T17:00:33.207Z,11.3
2019-02-18T17:05:34.192Z,11
2019-02-18T17:10:40.791Z,10.9
2019-02-18T17:15:38.673Z,10.6
2019-02-18T17:20:40.922Z,10.4
2019-02-18T17:25:43.174Z,10.2
2019-02-18T17:30:45.608Z,10
2019-02-18T17:35:47.798Z,10.2
2019-02-18T17:40:50.063Z,10.2
2019-02-18T17:45:52.339Z,10.2
2019-02-18T19:01:21.922Z,9.9
2019-02-18T19:06:24.256Z,9.7
2019-02-18T19:11:26.491Z,9.5
2019-02-18T19:16:28.771Z,9.4
2019-02-18T19:21:31.067Z,9.4
2019-02-18T19:26:33.449Z,9.2
2019-02-18T19:31:35.691Z,9.1
2019-02-18T19:36:38.078Z,9
2019-02-18T19:41:40.281Z,9
2019-02-18T19:46:42.596Z,8.9
2019-02-18T19:51:44.856Z,8.9
2019-02-18T19:56:47.210Z,8.9
2019-02-18T20:01:49.447Z,8.8
2019-02-18T20:06:51.978Z,8.7
2019-02-18T20:11:54.152Z,8.6
2019-02-18T20:16:56.307Z,8.5
2019-02-18T20:21:58.621Z,8.4
2019-02-18T20:27:01.068Z,8.4
2019-02-18T20:32:03.364Z,8.4
2019-02-18T20:37:05.577Z,8.4
2019-02-18T20:42:07.709Z,8.3
2019-02-18T20:47:11.298Z,8.3
2019-02-18T20:52:12.561Z,8.3
2019-02-18T20:57:14.643Z,8.4
2019-02-18T21:02:16.974Z,8.4
2019-02-18T21:07:19.374Z,8.4
2019-02-18T21:12:21.614Z,8.3
2019-02-18T21:17:23.889Z,8.3
2019-02-18T21:22:39.384Z,8.3
2019-02-18T21:27:40.405Z,8.1
2019-02-18T21:32:42.628Z,8
2019-02-18T21:37:44.809Z,8
2019-02-18T21:42:47.228Z,8
2019-02-18T21:53:21.937Z,8
2019-02-18T21:58:23.002Z,8
2019-02-18T22:03:40.550Z,8
2019-02-18T22:08:41.881Z,8.1
2019-02-18T22:13:45.101Z,8.1
2019-02-18T22:18:46.355Z,8.2
2019-02-18T22:33:46.321Z,8.3
2019-02-18T22:38:46.487Z,8.5
2019-02-18T22:43:48.811Z,8.5
2019-02-18T22:48:51.068Z,8.6
2019-02-18T22:53:53.313Z,8.6
2019-02-18T22:58:55.680Z,8.6
2019-02-18T23:03:57.989Z,8.6
2019-02-18T23:09:00.145Z,8.6
2019-02-18T23:14:02.545Z,8.6
2019-02-18T23:19:06.615Z,8.6
2019-02-18T23:24:07.213Z,8.6
2019-02-18T23:29:09.376Z,8.6
2019-02-18T23:34:11.597Z,8.5
2019-02-18T23:39:13.973Z,8.5
2019-02-18T23:44:16.450Z,8.4
2019-02-18T23:49:18.522Z,8.4
2019-02-18T23:54:20.795Z,8.3
2019-02-18T23:59:28.985Z,8.3
